Prunedale, California
Current Conditions -  °F | °C
As of 12:53 PM on Friday 19 Dec 2014 (Local Time) from KSNS Reporting Station
Overcast Overcast  
Wind Chill: 16°   Ceiling: 4000
Heat Index: 16°   Visibility: 10mi
Dew Point: 11°   Wind: 17mph
Humidity: 72%   Direction: 110°ESE
Pressure: 30.14"   Gusts: 25mph
Location:  36.7756°N, 121.661°W
Report Text: KSNS 192053Z 11015G22KT 10SM BKN040 OVC050 16/11 A3014 RMK AO2 SLP215 T01560106 56029
Loading
Personal Weather Stations






























Interactive Weather Map New forecast layout! Learn more

10-Day Weather Forecast

Advertisements
Track Severe Weather on mobile